Terminal Aerodrome Forecast
Issued by NWS

Home | Current Version | Previous Version | Text Only | Print | Product List | Glossary On
Versions: 1 2 3 4 5 6 7 8 9 10 11 12 13 14 15 16 17
000
FTAK31 PAJN 300827 AAB
TAFAPG
TAF AMD
PAPG 300827Z 3008/3106 00000KT P6SM VCSH FEW004 OVC050
      TEMPO 3008/3011 OVC004
     FM301100 00000KT 5SM BR BKN007 OVC015
     FM301600 05004KT P6SM SCT008 BKN015 OVC040
     FM302100 05006KT P6SM SCT025 BKN045
      AMD LTD TO CLD VIS AND WIND TIL 301500=

USA.gov is the U.S. government's official web portal to all federal, state and local government web resources and services.